Aérodrome :
LOGIN :

S'inscrire | Disclaimer

   EN    FR    IT 

 










Légende :    VFR   VFR Marginal   IFR   IFR Intensif   IFR Très Intensif
Visi : 
Plafond : 
>= 8 km
>= 3000ft
5 à 8 km
1000 à 3000 ft
1500m à 5 km
500 à 1000 ft
800 à 1500m
200 à 500 ft
< 800m
< 200 ft
Symboles :   Orages  Brouillard  Fortes neiges  Fortes précipitations  Vent > 20 kt
SIGMETs :   Divers  Orages  Givrage  Turbulence  Onde Orograph.  Cendres Volcan.







- Altitude de l'aérodrome : 364 ft
- Voir les cartes d'approche


LFAQ - Albert Bray

DERNIER METAR :
  • 231000Z AUTO 08015KT 9999 FEW021 10/05 Q1011 NOSIG

METARs EXPIRÉS :
  • 230930Z AUTO 07013KT CAVOK 10/05 Q1011 NOSIG
  • 230900Z AUTO 06012KT CAVOK 08/05 Q1010 NOSIG
  • 230830Z AUTO 06012KT CAVOK 08/04 Q1010 NOSIG
  • 230800Z AUTO 06010KT CAVOK 07/04 Q1010 NOSIG
  • 230730Z AUTO 07011KT CAVOK 06/03 Q1010 NOSIG

TAF TAF LFAQ
Valide du 23 à 09h jusqu'au 23 à 18h UTC


230800Z 2309/2318 07013KT CAVOK
PROB40
TEMPO 2313/2318 4000 SHRA BKN030TCU
Pas de NOTAMs connus pour ce terrain.



MET'MAP, la Météo Aéronautique d'un coup d'oeil ! - Copyright ORBIFLY Décembre 2007 - Disclaimer

ORBIFLY MET'MAP TEAM :

Programmation & Développement : Alexandra Zaïnal
Conception & Développement : Baudouin d'Aumeries
Co-Programmation & Développement : Marc-Olivier Méhu
Soutien technique & logistique : Manuel Goepfert

Contact : metmap@orbifly.com




SOURCES & CREDITS :

   NOAA